createdAt,value
2023-04-09T00:00:28.719Z,100.00
2023-04-09T00:05:30.669Z,100.00
2023-04-09T00:10:34.961Z,100.00
2023-04-09T00:15:37.347Z,100.00
2023-04-09T00:20:39.390Z,100.00
2023-04-09T00:25:41.251Z,100.00
2023-04-09T00:30:42.925Z,100.00
2023-04-09T00:35:46.915Z,100.00
2023-04-09T00:40:50.418Z,100.00
2023-04-09T00:45:56.909Z,100.00
2023-04-09T00:50:58.671Z,100.00
2023-04-09T00:56:00.500Z,100.00
2023-04-09T01:01:04.670Z,100.00
2023-04-09T01:06:24.842Z,100.00
2023-04-09T01:11:39.280Z,100.00
2023-04-09T01:16:50.315Z,100.00
2023-04-09T01:21:58.746Z,100.00
2023-04-09T01:27:07.712Z,100.00
2023-04-09T01:32:33.578Z,100.00
2023-04-09T01:37:38.523Z,100.00
2023-04-09T01:42:40.797Z,100.00
2023-04-09T01:47:45.818Z,100.00
2023-04-09T01:52:47.642Z,100.00
2023-04-09T01:57:51.698Z,100.00
2023-04-09T02:03:11.307Z,100.00
2023-04-09T02:08:42.156Z,100.00
2023-04-09T02:13:48.398Z,100.00
2023-04-09T02:18:54.795Z,100.00
2023-04-09T02:23:59.542Z,100.00
2023-04-09T02:29:05.720Z,100.00
2023-04-09T02:34:10.397Z,100.00
2023-04-09T02:39:12.202Z,100.00
2023-04-09T02:44:14.166Z,100.00
2023-04-09T02:49:16.133Z,100.00
2023-04-09T02:54:21.094Z,100.00
2023-04-09T02:59:25.065Z,100.00
2023-04-09T03:04:31.667Z,100.00
2023-04-09T03:09:35.723Z,100.00
2023-04-09T03:14:37.429Z,100.00
2023-04-09T03:19:39.281Z,100.00
2023-04-09T03:24:40.993Z,100.00
2023-04-09T03:29:47.340Z,100.00
2023-04-09T03:34:54.528Z,100.00
2023-04-09T03:39:57.471Z,100.00
2023-04-09T03:45:05.243Z,100.00
2023-04-09T03:50:12.762Z,100.00
2023-04-09T03:55:24.678Z,100.00
2023-04-09T04:00:27.496Z,100.00
2023-04-09T04:05:51.266Z,100.00
2023-04-09T04:10:53.191Z,100.00
2023-04-09T04:15:55.829Z,100.00
2023-04-09T04:21:01.156Z,100.00
2023-04-09T04:26:10.870Z,100.00
2023-04-09T04:31:18.325Z,100.00
2023-04-09T04:36:23.242Z,100.00
2023-04-09T04:41:29.714Z,100.00
2023-04-09T04:46:51.650Z,100.00
2023-04-09T04:51:55.686Z,100.00
2023-04-09T04:56:57.543Z,100.00
2023-04-09T05:02:11.752Z,100.00
2023-04-09T05:07:24.442Z,100.00
2023-04-09T05:12:31.890Z,100.00
2023-04-09T05:17:36.685Z,100.00
2023-04-09T05:22:39.382Z,100.00
2023-04-09T05:27:41.848Z,100.00
2023-04-09T05:32:44.594Z,100.00
2023-04-09T05:37:50.949Z,100.00
2023-04-09T05:42:53.344Z,100.00
2023-04-09T05:48:11.018Z,100.00
2023-04-09T05:53:14.292Z,100.00
2023-04-09T05:58:18.804Z,100.00
2023-04-09T06:03:22.497Z,100.00
2023-04-09T06:08:32.076Z,100.00
2023-04-09T06:13:33.741Z,100.00
2023-04-09T06:18:42.453Z,100.00
2023-04-09T06:23:46.481Z,100.00
2023-04-09T06:28:50.446Z,100.00
2023-04-09T06:33:52.339Z,100.00
2023-04-09T06:38:59.408Z,100.00
2023-04-09T06:44:01.614Z,100.00
2023-04-09T06:49:06.005Z,100.00
2023-04-09T06:54:07.698Z,100.00
2023-04-09T06:59:09.420Z,100.00
2023-04-09T07:04:11.707Z,100.00
2023-04-09T07:09:13.473Z,100.00
2023-04-09T07:14:15.620Z,100.00
2023-04-09T07:19:20.385Z,100.00
2023-04-09T07:24:22.707Z,99.74
2023-04-09T07:29:24.545Z,99.85
2023-04-09T07:34:26.634Z,98.72
2023-04-09T07:39:31.288Z,96.21
2023-04-09T07:44:36.530Z,94.85
2023-04-09T07:49:38.503Z,93.82
2023-04-09T07:54:40.519Z,92.19
2023-04-09T07:59:42.283Z,90.92
2023-04-09T08:04:49.451Z,90.13
2023-04-09T08:09:51.606Z,88.95
2023-04-09T08:14:56.132Z,88.39
2023-04-09T08:19:57.836Z,87.24
2023-04-09T08:25:01.411Z,86.94
2023-04-09T08:30:07.339Z,86.61
2023-04-09T08:35:13.208Z,84.89
2023-04-09T08:40:15.275Z,84.19
2023-04-09T08:45:19.276Z,83.11
2023-04-09T08:50:21.144Z,82.23
2023-04-09T08:55:22.928Z,81.35
2023-04-09T09:00:24.758Z,81.57
2023-04-09T09:05:36.317Z,80.81
2023-04-09T09:10:43.007Z,79.68
2023-04-09T09:15:49.945Z,79.74
2023-04-09T09:20:51.742Z,77.94
2023-04-09T09:25:59.565Z,77.52
2023-04-09T09:31:10.117Z,76.43
2023-04-09T09:36:16.035Z,77.06
2023-04-09T09:41:23.360Z,75.54
2023-04-09T09:46:26.328Z,75.03
2023-04-09T09:51:31.489Z,73.90
2023-04-09T09:56:39.417Z,73.99
2023-04-09T10:01:44.355Z,73.12
2023-04-09T10:06:50.275Z,72.31
2023-04-09T10:11:56.012Z,71.78
2023-04-09T10:16:57.839Z,71.16
2023-04-09T10:22:05.774Z,69.65
2023-04-09T10:27:12.552Z,69.18
2023-04-09T10:32:23.870Z,69.91
2023-04-09T10:37:27.387Z,69.74
2023-04-09T10:42:38.873Z,69.21
2023-04-09T10:47:42.816Z,68.51
2023-04-09T10:52:45.350Z,68.91
2023-04-09T10:57:49.554Z,68.42
2023-04-09T11:03:04.567Z,68.56
2023-04-09T11:08:14.027Z,68.09
2023-04-09T11:13:17.472Z,68.20
2023-04-09T11:18:25.883Z,67.81
2023-04-09T11:23:28.097Z,68.39
2023-04-09T11:28:29.927Z,66.45
2023-04-09T11:33:36.888Z,66.22
2023-04-09T11:38:41.435Z,65.67
2023-04-09T11:43:43.338Z,65.15
2023-04-09T11:48:45.372Z,65.11
2023-04-09T11:53:52.227Z,64.74
2023-04-09T11:58:54.864Z,61.29
2023-04-09T12:03:56.697Z,59.61
2023-04-09T12:08:59.280Z,56.66
2023-04-09T12:14:02.899Z,53.73
2023-04-09T12:19:08.784Z,50.15
2023-04-09T12:24:10.497Z,49.01
2023-04-09T12:29:21.609Z,45.88
2023-04-09T12:34:27.305Z,45.39
2023-04-09T12:39:33.855Z,43.58
2023-04-09T12:44:37.206Z,42.51
2023-04-09T12:49:40.630Z,39.52
2023-04-09T12:54:44.976Z,38.73
2023-04-09T12:59:46.746Z,39.11
2023-04-09T13:04:49.242Z,38.46
2023-04-09T13:09:51.202Z,37.90
2023-04-09T13:14:59.367Z,36.57
2023-04-09T13:20:03.792Z,35.03
2023-04-09T13:25:08.156Z,33.91
2023-04-09T13:30:10.035Z,33.72
2023-04-09T13:35:11.739Z,32.26
2023-04-09T13:40:13.534Z,31.92
2023-04-09T13:45:18.065Z,30.98
2023-04-09T13:50:22.442Z,31.88
2023-04-09T13:55:26.756Z,32.77
2023-04-09T14:00:31.033Z,32.52
2023-04-09T14:05:35.061Z,31.86
2023-04-09T14:10:41.480Z,31.18
2023-04-09T14:15:45.326Z,30.77
2023-04-09T14:20:47.257Z,30.07
2023-04-09T14:25:51.331Z,28.42
2023-04-09T14:30:56.398Z,27.14
2023-04-09T14:35:59.030Z,26.94
2023-04-09T14:41:00.862Z,26.33
2023-04-09T14:46:06.457Z,26.48
2023-04-09T14:51:11.746Z,26.07
2023-04-09T14:56:13.482Z,24.51
2023-04-09T15:01:17.490Z,24.31
2023-04-09T15:06:19.515Z,25.46
2023-04-09T15:11:26.779Z,25.39
2023-04-09T15:16:29.426Z,24.80
2023-04-09T15:21:34.059Z,25.02
2023-04-09T15:26:36.028Z,24.42
2023-04-09T15:31:40.032Z,24.16
2023-04-09T15:36:46.128Z,25.78
2023-04-09T15:41:50.093Z,25.11
2023-04-09T15:46:54.857Z,25.98
2023-04-09T15:51:56.836Z,25.55
2023-04-09T15:57:04.253Z,25.84
2023-04-09T16:02:08.745Z,25.46
2023-04-09T16:07:11.029Z,26.54
2023-04-09T16:12:15.590Z,28.76
2023-04-09T16:17:19.539Z,30.70
2023-04-09T16:22:23.690Z,32.22
2023-04-09T16:27:25.424Z,34.23
2023-04-09T16:32:29.374Z,35.54
2023-04-09T16:37:31.340Z,36.70
2023-04-09T16:42:36.913Z,38.46
2023-04-09T16:47:40.996Z,39.45
2023-04-09T16:52:44.137Z,40.67
2023-04-09T16:57:45.939Z,41.21
2023-04-09T17:02:47.761Z,41.71
2023-04-09T17:07:49.538Z,42.82
2023-04-09T17:12:53.663Z,42.58
2023-04-09T17:17:58.495Z,40.09
2023-04-09T17:23:02.449Z,39.72
2023-04-09T17:28:06.931Z,38.77
2023-04-09T17:33:12.410Z,39.46
2023-04-09T17:38:20.505Z,41.00
2023-04-09T17:43:22.278Z,40.92
2023-04-09T17:48:23.949Z,42.71
2023-04-09T17:53:27.781Z,43.34
2023-04-09T17:58:31.866Z,43.26
2023-04-09T18:03:34.156Z,44.68
2023-04-09T18:08:36.889Z,45.34
2023-04-09T18:13:40.953Z,45.40
2023-04-09T18:18:45.260Z,45.87
2023-04-09T18:23:47.367Z,46.91
2023-04-09T18:28:49.121Z,47.38
2023-04-09T18:33:51.406Z,49.27
2023-04-09T18:39:00.278Z,51.29
2023-04-09T18:44:02.302Z,52.04
2023-04-09T18:49:06.296Z,53.38
2023-04-09T18:54:10.111Z,54.19
2023-04-09T18:59:12.264Z,54.13
2023-04-09T19:04:14.312Z,55.23
2023-04-09T19:09:16.077Z,56.18
2023-04-09T19:14:19.871Z,56.73
2023-04-09T19:19:24.088Z,57.74
2023-04-09T19:24:25.890Z,58.50
2023-04-09T19:29:30.394Z,58.64
2023-04-09T19:34:34.894Z,59.46
2023-04-09T19:39:36.634Z,60.67
2023-04-09T19:44:40.641Z,60.87
2023-04-09T19:49:42.540Z,62.50
2023-04-09T19:54:44.237Z,63.22
2023-04-09T19:59:48.550Z,64.17
2023-04-09T20:04:52.391Z,65.39
2023-04-09T20:09:54.656Z,67.13
2023-04-09T20:14:59.352Z,67.15
2023-04-09T20:20:04.849Z,66.84
2023-04-09T20:25:07.142Z,66.85
2023-04-09T20:30:11.628Z,67.53
2023-04-09T20:35:14.547Z,67.79
2023-04-09T20:40:19.073Z,68.73
2023-04-09T20:45:21.091Z,68.36
2023-04-09T20:50:22.826Z,69.67
2023-04-09T20:55:25.467Z,71.02
2023-04-09T21:00:27.692Z,71.56
2023-04-09T21:05:29.397Z,72.07
2023-04-09T21:10:33.457Z,73.14
2023-04-09T21:15:38.213Z,74.02
2023-04-09T21:20:48.789Z,75.04
2023-04-09T21:25:50.464Z,74.88
2023-04-09T21:30:57.702Z,74.96
2023-04-09T21:35:59.608Z,76.00
2023-04-09T21:41:01.876Z,76.84
2023-04-09T21:46:05.986Z,77.56
2023-04-09T21:51:13.545Z,77.85
2023-04-09T21:56:17.859Z,78.17
2023-04-09T22:01:29.046Z,79.27
2023-04-09T22:06:35.708Z,79.32
2023-04-09T22:11:41.159Z,80.54
2023-04-09T22:16:48.233Z,80.80
2023-04-09T22:21:50.650Z,81.55
2023-04-09T22:27:01.626Z,82.24
2023-04-09T22:32:05.712Z,82.79
2023-04-09T22:37:12.247Z,83.01
2023-04-09T22:42:17.054Z,83.15
2023-04-09T22:47:18.769Z,82.67
2023-04-09T22:52:20.634Z,83.31
2023-04-09T22:57:22.305Z,84.11
2023-04-09T23:02:24.195Z,83.65
2023-04-09T23:07:26.186Z,84.07
2023-04-09T23:12:27.871Z,84.33
2023-04-09T23:17:32.016Z,85.29
2023-04-09T23:22:39.007Z,84.85
2023-04-09T23:27:43.646Z,86.09
2023-04-09T23:32:48.398Z,86.50
2023-04-09T23:37:53.101Z,86.38
2023-04-09T23:42:57.019Z,87.04
2023-04-09T23:48:00.797Z,86.57
2023-04-09T23:53:04.708Z,86.79
2023-04-09T23:58:09.763Z,87.50
